Time;durP1;ratioP1;P1;durP2;ratioP2;P2;SDS_P1;SDS_P2;PMS_P1;PMS_P2;Temp;Humidity;BMP_temperature;BMP_pressure;BME280_temperature;BME280_humidity;BME280_pressure;Samples;Min_cycle;Max_cycle;Signal;HPM_P1;HPM_P2
2024/02/10 00:01:49;;;;;;;;;;;;;;;21.94;37.83;98118.25;4231217;28;20027;-70
2024/02/10 00:03:50;;;;;;;;;;;;;;;21.93;37.98;98117.38;4231666;28;19930;-69
2024/02/10 00:05:52;;;;;;;;;;;;;;;21.92;37.90;98110.41;4231685;28;20389;-69
2024/02/10 00:07:57;;;;;;;;;;;;;;;21.92;38.06;98117.59;4231738;28;19969;-68
2024/02/10 00:09:59;;;;;;;;;;;;;;;21.92;37.96;98113.09;4231717;28;20339;-68
2024/02/10 00:12:01;;;;;;;;;;;;;;;21.92;37.92;98107.72;4231593;28;19934;-70
2024/02/10 00:14:03;;;;;;;;;;;;;;;21.93;38.08;98090.63;4231362;28;19923;-70
2024/02/10 00:16:05;;;;;;;;;;;;;;;21.95;38.17;98095.81;4231171;28;19923;-69
2024/02/10 00:18:10;;;;;;;;;;;;;;;21.96;38.16;98095.63;4231756;28;19951;-69
2024/02/10 00:20:15;;;;;;;;;;;;;;;21.96;37.92;98097.47;4231453;28;20085;-69
2024/02/10 00:22:17;;;;;;;;;;;;;;;21.98;37.99;98095.41;4231203;28;19924;-69
2024/02/10 00:24:19;;;;;;;;;;;;;;;21.99;37.86;98089.03;4231524;28;19930;-69
2024/02/10 00:26:22;;;;;;;;;;;;;;;21.97;38.10;98088.41;4231062;28;19959;-69
2024/02/10 00:28:24;;;;;;;;;;;;;;;21.96;37.83;98087.59;4231259;28;19939;-69
2024/02/10 00:30:27;;;;;;;;;;;;;;;21.96;38.10;98084.91;4230962;28;19924;-69
2024/02/10 00:32:29;;;;;;;;;;;;;;;21.97;38.04;98075.88;4231466;28;19928;-69
2024/02/10 00:34:33;;;;;;;;;;;;;;;21.95;37.73;98075.22;4231135;28;20364;-69
2024/02/10 00:36:35;;;;;;;;;;;;;;;21.95;38.21;98066.38;4231129;28;19924;-69
2024/02/10 00:38:40;;;;;;;;;;;;;;;21.94;38.10;98057.50;4213468;28;19924;-69
2024/02/10 00:40:42;;;;;;;;;;;;;;;21.95;37.70;98058.34;4231186;28;20014;-69
2024/02/10 00:42:43;;;;;;;;;;;;;;;21.96;37.94;98065.38;4231071;28;19927;-69
2024/02/10 00:44:49;;;;;;;;;;;;;;;21.99;37.76;98056.94;4230839;28;19924;-69
2024/02/10 00:46:51;;;;;;;;;;;;;;;21.99;37.74;98046.22;4231181;28;19924;-69
2024/02/10 00:48:53;;;;;;;;;;;;;;;21.98;37.77;98045.41;4230761;28;19923;-69
2024/02/10 00:50:59;;;;;;;;;;;;;;;21.98;37.62;98042.72;4231094;28;19947;-69
2024/02/10 00:53:02;;;;;;;;;;;;;;;21.97;37.82;98042.91;4231365;28;19930;-69
2024/02/10 00:55:04;;;;;;;;;;;;;;;21.95;37.88;98048.47;4230853;28;20299;-69
2024/02/10 00:57:10;;;;;;;;;;;;;;;21.93;38.02;98063.88;4231006;28;19924;-69
2024/02/10 00:59:15;;;;;;;;;;;;;;;21.92;38.05;98061.41;4230716;28;19928;-70
2024/02/10 01:01:22;;;;;;;;;;;;;;;21.90;37.88;98061.59;4231183;28;19924;-70
2024/02/10 01:03:24;;;;;;;;;;;;;;;21.89;37.82;98069.84;4230892;28;19977;-70
2024/02/10 01:05:26;;;;;;;;;;;;;;;21.87;37.82;98061.97;4231018;28;19952;-70
2024/02/10 01:07:30;;;;;;;;;;;;;;;21.86;38.08;98068.38;4231089;28;19924;-70
2024/02/10 01:09:32;;;;;;;;;;;;;;;21.86;38.17;98069.19;4230825;28;19935;-70
2024/02/10 01:11:33;;;;;;;;;;;;;;;21.88;38.12;98068.16;4231075;28;20034;-71
2024/02/10 01:13:35;;;;;;;;;;;;;;;21.85;37.93;98069.38;4230540;28;19959;-70
2024/02/10 01:15:36;;;;;;;;;;;;;;;21.85;38.14;98070.19;4230776;28;19969;-70
2024/02/10 01:17:38;;;;;;;;;;;;;;;21.86;38.31;98073.72;4231189;28;19969;-70
2024/02/10 01:19:46;;;;;;;;;;;;;;;21.86;38.24;98084.44;4230955;28;20357;-70
2024/02/10 01:21:47;;;;;;;;;;;;;;;21.84;38.20;98081.91;4231009;28;19959;-70
2024/02/10 01:23:49;;;;;;;;;;;;;;;21.84;38.12;98075.75;4230986;28;20405;-70
2024/02/10 01:25:52;;;;;;;;;;;;;;;21.82;38.33;98073.28;4231026;28;19924;-70
2024/02/10 01:27:55;;;;;;;;;;;;;;;21.82;38.33;98075.09;4230714;28;19946;-70
2024/02/10 01:29:57;;;;;;;;;;;;;;;21.79;38.20;98079.00;4230839;28;19924;-69
2024/02/10 01:31:59;;;;;;;;;;;;;;;21.79;38.27;98079.00;4230834;28;19988;-70
2024/02/10 01:34:01;;;;;;;;;;;;;;;21.80;38.45;98074.47;4230678;28;19924;-70
2024/02/10 01:36:03;;;;;;;;;;;;;;;21.79;38.35;98084.34;4230582;28;19931;-70
2024/02/10 01:38:09;;;;;;;;;;;;;;;21.80;38.01;98083.34;4230775;28;20339;-70
2024/02/10 01:40:11;;;;;;;;;;;;;;;21.80;38.42;98086.00;4230686;28;20417;-70
2024/02/10 01:42:19;;;;;;;;;;;;;;;21.83;38.06;98087.47;4230177;28;19928;-71
2024/02/10 01:44:21;;;;;;;;;;;;;;;21.81;38.39;98087.66;4212859;28;19931;-70
2024/02/10 01:46:23;;;;;;;;;;;;;;;21.82;38.08;98075.94;4230763;28;19923;-71
2024/02/10 01:48:25;;;;;;;;;;;;;;;21.86;38.31;98077.22;4230686;28;20278;-71
2024/02/10 01:50:27;;;;;;;;;;;;;;;21.85;38.18;98077.41;4230485;28;19970;-70
2024/02/10 01:52:28;;;;;;;;;;;;;;;21.84;38.02;98073.06;4230580;28;19973;-70
2024/02/10 01:54:30;;;;;;;;;;;;;;;21.83;38.01;98069.56;4230498;28;19977;-70
2024/02/10 01:56:33;;;;;;;;;;;;;;;21.83;38.16;98071.41;4230237;28;19923;-70
2024/02/10 01:58:37;;;;;;;;;;;;;;;21.83;38.12;98068.75;4230847;28;20300;-70
2024/02/10 02:00:38;;;;;;;;;;;;;;;21.82;38.15;98067.94;4230414;28;19927;-70
2024/02/10 02:02:41;;;;;;;;;;;;;;;21.84;38.41;98070.41;4232757;28;19928;-70
2024/02/10 02:04:43;;;;;;;;;;;;;;;21.85;38.14;98077.41;4233490;28;19923;-70
2024/02/10 02:06:45;;;;;;;;;;;;;;;21.85;38.44;98075.56;4215447;28;19924;-70
2024/02/10 02:08:50;;;;;;;;;;;;;;;21.87;38.21;98086.06;4233455;28;19955;-71
2024/02/10 02:10:53;;;;;;;;;;;;;;;21.88;38.07;98090.38;4233822;28;19939;-71
2024/02/10 02:12:54;;;;;;;;;;;;;;;21.88;38.01;98084.22;4233574;28;20297;-70
2024/02/10 02:14:57;;;;;;;;;;;;;;;21.89;38.16;98091.25;4233509;28;19927;-70
2024/02/10 02:16:59;;;;;;;;;;;;;;;21.90;38.09;98095.56;4233536;28;19927;-70
2024/02/10 02:19:01;;;;;;;;;;;;;;;21.91;38.03;98100.72;4233376;28;19924;-70
2024/02/10 02:21:02;;;;;;;;;;;;;;;21.92;38.24;98098.88;4233423;28;19924;-70
2024/02/10 02:23:05;;;;;;;;;;;;;;;21.93;38.12;98089.81;4233157;28;19924;-70
2024/02/10 02:25:06;;;;;;;;;;;;;;;21.93;38.17;98095.97;4233331;28;19927;-70
2024/02/10 02:27:09;;;;;;;;;;;;;;;21.93;37.97;98095.16;4232714;28;20015;-70
2024/02/10 02:29:10;;;;;;;;;;;;;;;21.91;38.18;98087.34;4233072;28;19923;-71
2024/02/10 02:31:15;;;;;;;;;;;;;;;21.91;38.16;98094.53;4233264;28;19924;-70
2024/02/10 02:33:16;;;;;;;;;;;;;;;21.90;38.12;98091.03;4233213;28;20388;-71
2024/02/10 02:35:18;;;;;;;;;;;;;;;21.91;37.97;98086.50;4233206;28;19927;-70
2024/02/10 02:37:22;;;;;;;;;;;;;;;21.91;38.15;98086.50;4233066;28;19928;-70
2024/02/10 02:39:24;;;;;;;;;;;;;;;21.91;38.19;98082.00;4232818;28;19923;-70
2024/02/10 02:41:26;;;;;;;;;;;;;;;21.93;38.16;98085.28;4232645;28;20396;-70
2024/02/10 02:43:29;;;;;;;;;;;;;;;21.93;38.14;98082.59;4214941;28;20031;-71
2024/02/10 02:45:31;;;;;;;;;;;;;;;21.93;38.17;98090.63;4232970;28;19923;-70
2024/02/10 02:47:34;;;;;;;;;;;;;;;21.92;38.18;98091.69;4232875;28;19924;-70
2024/02/10 02:49:37;;;;;;;;;;;;;;;21.92;37.96;98093.50;4232872;28;20030;-70
2024/02/10 02:51:39;;;;;;;;;;;;;;;21.91;37.96;98087.34;4232793;28;19935;-71
2024/02/10 02:53:40;;;;;;;;;;;;;;;21.91;37.84;98082.00;4232703;28;19924;-70
2024/02/10 02:55:45;;;;;;;;;;;;;;;21.92;38.08;98085.47;4232421;28;19930;-70
2024/02/10 02:57:48;;;;;;;;;;;;;;;21.91;37.90;98079.31;4232574;28;20044;-70
2024/02/10 02:59:50;;;;;;;;;;;;;;;21.92;37.93;98075.63;4232652;28;19955;-70
2024/02/10 03:01:54;;;;;;;;;;;;;;;21.93;38.11;98068.41;4232558;28;19990;-70
2024/02/10 03:03:56;;;;;;;;;;;;;;;21.93;38.21;98071.09;4232730;28;19923;-70
2024/02/10 03:05:57;;;;;;;;;;;;;;;21.94;38.07;98070.06;4232730;28;19924;-70
2024/02/10 03:07:59;;;;;;;;;;;;;;;21.94;38.15;98068.22;4232503;28;19931;-70
2024/02/10 03:10:00;;;;;;;;;;;;;;;21.94;37.92;98065.53;4232350;28;19924;-69
2024/02/10 03:12:02;;;;;;;;;;;;;;;21.96;37.95;98068.03;4232213;28;19923;-70
2024/02/10 03:14:04;;;;;;;;;;;;;;;21.96;37.94;98057.34;4232434;28;19924;-70
2024/02/10 03:16:05;;;;;;;;;;;;;;;21.96;38.09;98052.78;4232633;28;19959;-70
2024/02/10 03:18:07;;;;;;;;;;;;;;;21.96;38.09;98047.44;4232543;28;19946;-69
2024/02/10 03:20:09;;;;;;;;;;;;;;;21.94;37.98;98044.13;4232271;28;20356;-70
2024/02/10 03:22:12;;;;;;;;;;;;;;;21.95;37.75;98036.94;4232471;28;19924;-70
2024/02/10 03:24:16;;;;;;;;;;;;;;;21.94;37.83;98036.09;4231898;28;19923;-70
2024/02/10 03:26:18;;;;;;;;;;;;;;;21.94;37.78;98029.94;4232429;28;19928;-70
2024/02/10 03:28:19;;;;;;;;;;;;;;;21.95;37.76;98034.25;4232503;28;19927;-70
2024/02/10 03:30:23;;;;;;;;;;;;;;;21.95;37.88;98042.28;4213950;28;20358;-70
2024/02/10 03:32:24;;;;;;;;;;;;;;;21.96;37.97;98038.59;4232110;28;20389;-70
2024/02/10 03:34:26;;;;;;;;;;;;;;;21.96;37.91;98038.59;4232224;28;20308;-70
2024/02/10 03:36:30;;;;;;;;;;;;;;;21.96;38.01;98038.59;4232000;28;20014;-70
2024/02/10 03:38:32;;;;;;;;;;;;;;;21.98;37.63;98036.53;4231707;28;19924;-70
2024/02/10 03:40:34;;;;;;;;;;;;;;;21.97;37.74;98038.41;4232129;28;19924;-70
2024/02/10 03:42:36;;;;;;;;;;;;;;;21.97;37.71;98038.41;4232071;28;20023;-70
2024/02/10 03:44:38;;;;;;;;;;;;;;;21.97;38.07;98043.75;4232159;28;19962;-70
2024/02/10 03:46:39;;;;;;;;;;;;;;;21.96;38.09;98026.03;4232131;28;19977;-69
2024/02/10 03:48:42;;;;;;;;;;;;;;;21.96;37.78;98026.03;4231937;28;19924;-69
2024/02/10 03:50:44;;;;;;;;;;;;;;;21.96;37.73;98028.72;4231704;28;20011;-70
2024/02/10 03:52:46;;;;;;;;;;;;;;;21.96;37.97;98022.53;4231436;28;19924;-70
2024/02/10 03:54:51;;;;;;;;;;;;;;;21.95;37.77;98023.56;4231645;28;19976;-70
2024/02/10 03:56:53;;;;;;;;;;;;;;;21.96;37.94;98027.91;4231639;28;19969;-71
2024/02/10 03:58:54;;;;;;;;;;;;;;;21.96;37.82;98017.19;4231806;28;20018;-70
2024/02/10 04:00:57;;;;;;;;;;;;;;;21.97;37.66;98017.00;4231727;28;20023;-70
2024/02/10 04:02:58;;;;;;;;;;;;;;;21.98;37.75;98017.81;4231519;28;19924;-70
2024/02/10 04:05:03;;;;;;;;;;;;;;;21.99;37.67;98022.13;4231578;28;19982;-69
2024/02/10 04:07:04;;;;;;;;;;;;;;;21.99;37.84;98030.16;4231274;28;20018;-70
2024/02/10 04:09:06;;;;;;;;;;;;;;;21.99;37.74;98028.34;4231482;28;19978;-70
2024/02/10 04:11:08;;;;;;;;;;;;;;;21.99;37.88;98023.00;4231655;28;19985;-70
2024/02/10 04:13:09;;;;;;;;;;;;;;;21.99;37.74;98014.97;4231694;28;20392;-70
2024/02/10 04:15:11;;;;;;;;;;;;;;;22.00;37.70;98013.91;4231153;28;20018;-69
2024/02/10 04:17:13;;;;;;;;;;;;;;;21.99;37.57;98017.63;4231486;28;20016;-70
2024/02/10 04:19:14;;;;;;;;;;;;;;;21.98;37.84;98015.97;4213353;28;19974;-70
2024/02/10 04:21:16;;;;;;;;;;;;;;;22.01;37.61;98025.47;4231362;28;20337;-70
2024/02/10 04:23:18;;;;;;;;;;;;;;;21.98;37.71;98015.13;4213054;28;20347;-70
2024/02/10 04:25:19;;;;;;;;;;;;;;;21.98;37.95;98013.31;4231099;28;19923;-70
2024/02/10 04:27:21;;;;;;;;;;;;;;;21.98;37.84;98015.13;4231381;28;19923;-70
2024/02/10 04:29:22;;;;;;;;;;;;;;;21.98;37.79;98017.81;4213455;28;19961;-69
2024/02/10 04:31:24;;;;;;;;;;;;;;;22.00;37.80;98013.09;4231539;28;19931;-70
2024/02/10 04:33:26;;;;;;;;;;;;;;;22.00;37.75;98005.06;4231371;28;20301;-69
2024/02/10 04:35:27;;;;;;;;;;;;;;;21.99;37.82;98014.13;4231158;28;20393;-70
2024/02/10 04:37:29;;;;;;;;;;;;;;;22.00;37.74;98013.09;4213063;28;19939;-69
2024/02/10 04:39:30;;;;;;;;;;;;;;;22.00;37.87;98013.09;4231284;28;19928;-70
2024/02/10 04:41:32;;;;;;;;;;;;;;;22.00;37.57;98013.09;4231144;28;19924;-70
2024/02/10 04:43:36;;;;;;;;;;;;;;;21.99;37.71;98011.44;4230518;28;20318;-70
2024/02/10 04:45:38;;;;;;;;;;;;;;;21.98;37.90;98015.97;4231397;28;19966;-70
2024/02/10 04:47:41;;;;;;;;;;;;;;;21.98;37.96;98021.31;4231319;28;20014;-70
2024/02/10 04:49:43;;;;;;;;;;;;;;;21.97;37.79;98027.69;4230955;28;19924;-70
2024/02/10 04:51:46;;;;;;;;;;;;;;;21.97;37.68;98033.03;4212719;28;19924;-70
2024/02/10 04:53:47;;;;;;;;;;;;;;;21.97;37.72;98040.22;4231273;28;19977;-70
2024/02/10 04:55:49;;;;;;;;;;;;;;;21.96;37.66;98026.03;4230999;28;19956;-70
2024/02/10 04:57:51;;;;;;;;;;;;;;;21.97;37.68;98030.38;4231290;28;19959;-70
2024/02/10 04:59:53;;;;;;;;;;;;;;;21.97;37.96;98032.19;4230994;28;19981;-70
2024/02/10 05:01:55;;;;;;;;;;;;;;;21.97;37.53;98030.38;4231141;28;19930;-70
2024/02/10 05:03:57;;;;;;;;;;;;;;;21.98;37.68;98031.19;4230987;28;19924;-70
2024/02/10 05:05:59;;;;;;;;;;;;;;;21.97;37.74;98027.69;4230853;28;19938;-70
2024/02/10 05:08:00;;;;;;;;;;;;;;;21.98;37.51;98021.31;4231042;28;19928;-70
2024/02/10 05:10:02;;;;;;;;;;;;;;;21.98;37.62;98031.19;4231056;28;19928;-70
2024/02/10 05:12:04;;;;;;;;;;;;;;;21.97;37.81;98033.03;4230972;28;19927;-70
2024/02/10 05:14:07;;;;;;;;;;;;;;;21.98;37.70;98018.66;4230913;28;19966;-68
2024/02/10 05:16:09;;;;;;;;;;;;;;;21.97;37.82;98024.19;4230801;28;20023;-70
2024/02/10 05:18:11;;;;;;;;;;;;;;;21.96;37.79;98023.38;4231060;28;19928;-70
2024/02/10 05:20:18;;;;;;;;;;;;;;;21.96;37.82;98015.34;4230688;28;20364;-70
2024/02/10 05:22:21;;;;;;;;;;;;;;;21.95;37.82;98012.84;4231049;28;19930;-70
2024/02/10 05:24:24;;;;;;;;;;;;;;;21.96;37.77;98015.34;4230981;28;20400;-71
2024/02/10 05:26:36;;;;;;;;;;;;;;;21.96;37.85;98022.53;4230968;28;19924;-70
2024/02/10 05:28:38;;;;;;;;;;;;;;;21.96;37.69;98014.53;4230959;28;19955;-71
2024/02/10 05:30:40;;;;;;;;;;;;;;;21.97;37.83;98014.31;4230884;28;19924;-69
2024/02/10 05:32:44;;;;;;;;;;;;;;;21.97;37.69;98018.81;4230923;28;19939;-70
2024/02/10 05:34:48;;;;;;;;;;;;;;;21.98;37.82;98018.66;4230475;28;19931;-70
2024/02/10 05:36:50;;;;;;;;;;;;;;;21.98;37.68;98013.31;4233416;28;19931;-68
2024/02/10 05:38:51;;;;;;;;;;;;;;;21.80;37.68;97980.81;4233856;28;19959;-68
2024/02/10 05:40:54;;;;;;;;;;;;;;;21.97;37.77;98014.31;4233951;28;19924;-68
2024/02/10 05:42:58;;;;;;;;;;;;;;;21.96;37.48;98009.97;4233959;28;19930;-68
2024/02/10 05:45:06;;;;;;;;;;;;;;;21.95;37.75;98011.00;4233875;28;20404;-68
2024/02/10 05:47:08;;;;;;;;;;;;;;;21.96;37.47;98015.34;4234103;28;20373;-68
2024/02/10 05:49:16;;;;;;;;;;;;;;;21.95;37.46;98013.69;4233493;28;19924;-68
2024/02/10 05:51:17;;;;;;;;;;;;;;;21.95;37.84;98015.53;4233993;28;19969;-70
2024/02/10 05:53:19;;;;;;;;;;;;;;;21.95;37.66;98023.56;4215587;28;19959;-70
2024/02/10 05:55:25;;;;;;;;;;;;;;;21.96;37.64;98015.34;4233700;28;19923;-70
2024/02/10 05:57:27;;;;;;;;;;;;;;;21.98;37.61;98017.81;4233663;28;19927;-70
2024/02/10 05:59:28;;;;;;;;;;;;;;;21.98;37.59;98012.44;4233832;28;19930;-70
2024/02/10 06:01:30;;;;;;;;;;;;;;;21.97;37.88;98010.78;4233631;28;20014;-70
2024/02/10 06:03:32;;;;;;;;;;;;;;;21.97;37.51;98010.78;4233309;28;19988;-70
2024/02/10 06:05:33;;;;;;;;;;;;;;;21.97;37.64;98008.97;4233793;28;19956;-69
2024/02/10 06:07:36;;;;;;;;;;;;;;;21.96;37.86;98003.81;4233552;28;19977;-69
2024/02/10 06:09:37;;;;;;;;;;;;;;;21.96;37.67;98001.94;4233488;28;19923;-70
2024/02/10 06:11:39;;;;;;;;;;;;;;;21.96;37.58;98004.63;4233569;28;20388;-70
2024/02/10 06:13:42;;;;;;;;;;;;;;;21.95;37.85;97999.47;4233735;28;19924;-70
2024/02/10 06:15:46;;;;;;;;;;;;;;;21.95;37.86;98008.31;4233493;28;20364;-70
2024/02/10 06:17:52;;;;;;;;;;;;;;;21.96;37.82;98009.97;4233219;28;19924;-69
2024/02/10 06:19:54;;;;;;;;;;;;;;;21.96;37.71;98007.31;4233572;28;19928;-70
2024/02/10 06:21:56;;;;;;;;;;;;;;;21.98;37.79;98004.44;4233488;28;19931;-70
2024/02/10 06:24:00;;;;;;;;;;;;;;;21.99;37.52;98008.75;4233679;28;20348;-69
2024/02/10 06:26:01;;;;;;;;;;;;;;;22.00;37.76;98005.88;4233370;28;19928;-70
2024/02/10 06:28:03;;;;;;;;;;;;;;;22.00;37.63;98013.91;4215107;28;19924;-70
2024/02/10 06:30:05;;;;;;;;;;;;;;;21.99;37.58;98009.59;4233328;28;19963;-69
2024/02/10 06:32:08;;;;;;;;;;;;;;;21.99;37.59;98008.75;4232884;28;19924;-70
2024/02/10 06:34:10;;;;;;;;;;;;;;;21.99;37.76;98016.78;4215227;28;19924;-71
2024/02/10 06:36:13;;;;;;;;;;;;;;;21.99;37.37;98009.59;4232887;28;19935;-70
2024/02/10 06:38:15;;;;;;;;;;;;;;;22.00;37.46;98013.09;4233136;28;19931;-70
2024/02/10 06:40:18;;;;;;;;;;;;;;;21.99;37.81;98006.94;4233360;28;19924;-71
2024/02/10 06:42:19;;;;;;;;;;;;;;;21.98;37.61;98015.97;4232870;28;20010;-70
2024/02/10 06:44:21;;;;;;;;;;;;;;;21.99;37.65;98016.78;4233209;28;19923;-69
2024/02/10 06:46:22;;;;;;;;;;;;;;;21.99;37.44;98028.34;4232681;28;19942;-70
2024/02/10 06:48:23;;;;;;;;;;;;;;;21.98;37.52;98021.31;4232565;28;20403;-70
2024/02/10 06:50:27;;;;;;;;;;;;;;;21.98;37.56;98015.97;4233069;28;19931;-69
2024/02/10 06:52:34;;;;;;;;;;;;;;;21.98;37.77;98017.81;4233034;28;20301;-69
2024/02/10 06:54:37;;;;;;;;;;;;;;;21.98;37.46;98021.31;4232897;28;19924;-69
2024/02/10 06:56:38;;;;;;;;;;;;;;;21.99;37.58;98014.97;4232646;28;19927;-69
2024/02/10 06:58:41;;;;;;;;;;;;;;;21.99;37.46;98017.63;4233023;28;19959;-68
2024/02/10 07:00:43;;;;;;;;;;;;;;;22.00;37.50;98015.78;4232776;28;19928;-69
2024/02/10 07:02:45;;;;;;;;;;;;;;;22.00;37.64;98011.22;4232341;28;19924;-68
2024/02/10 07:04:52;;;;;;;;;;;;;;;21.99;37.65;98006.94;4232852;28;19923;-69
2024/02/10 07:06:57;;;;;;;;;;;;;;;21.98;37.61;98010.63;4232755;28;20454;-69
2024/02/10 07:09:03;;;;;;;;;;;;;;;21.98;37.70;98009.78;4232421;28;19924;-70
2024/02/10 07:11:05;;;;;;;;;;;;;;;21.98;37.58;98015.97;4232694;28;19993;-70
2024/02/10 07:13:07;;;;;;;;;;;;;;;21.99;37.82;98014.13;4232594;28;19928;-70
2024/02/10 07:15:12;;;;;;;;;;;;;;;21.98;37.58;98018.66;4232679;28;19924;-69
2024/02/10 07:17:16;;;;;;;;;;;;;;;21.99;37.75;98019.47;4232271;28;20458;-70
2024/02/10 07:19:17;;;;;;;;;;;;;;;22.00;37.40;98021.13;4232474;28;19924;-69
2024/02/10 07:21:19;;;;;;;;;;;;;;;22.00;37.86;98019.25;4232388;28;20014;-71
2024/02/10 07:23:26;;;;;;;;;;;;;;;22.00;37.57;98015.78;4214617;28;19924;-68
2024/02/10 07:25:28;;;;;;;;;;;;;;;22.00;37.38;98015.78;4232474;28;19931;-69
2024/02/10 07:27:30;;;;;;;;;;;;;;;22.00;37.55;98011.22;4232430;28;20416;-69
2024/02/10 07:29:35;;;;;;;;;;;;;;;22.00;37.80;98013.09;4232354;28;20062;-69
2024/02/10 07:31:39;;;;;;;;;;;;;;;22.01;37.55;98017.44;4232080;28;19947;-69
2024/02/10 07:33:41;;;;;;;;;;;;;;;22.00;37.69;98019.25;4232270;28;19923;-69
2024/02/10 07:35:43;;;;;;;;;;;;;;;21.99;37.72;98008.75;4232194;28;19928;-69
2024/02/10 07:37:45;;;;;;;;;;;;;;;21.99;37.67;98014.13;4213999;28;19969;-69
2024/02/10 07:39:50;;;;;;;;;;;;;;;21.98;37.85;98015.13;4232108;28;19927;-69
2024/02/10 07:41:52;;;;;;;;;;;;;;;21.96;37.51;98009.97;4232088;28;19959;-69
2024/02/10 07:43:53;;;;;;;;;;;;;;;21.97;37.77;98010.78;4232113;28;20014;-70
2024/02/10 07:45:55;;;;;;;;;;;;;;;21.97;37.63;98016.16;4231716;28;19931;-69
2024/02/10 07:47:57;;;;;;;;;;;;;;;21.98;37.78;98021.31;4231889;28;20339;-70
2024/02/10 07:50:00;;;;;;;;;;;;;;;22.00;37.73;98021.13;4232174;28;19924;-69
2024/02/10 07:52:02;;;;;;;;;;;;;;;22.00;37.56;98021.13;4232183;28;20339;-69
2024/02/10 07:54:05;;;;;;;;;;;;;;;21.99;37.84;98014.13;4232128;28;19957;-70
2024/02/10 07:56:07;;;;;;;;;;;;;;;22.00;37.39;98019.25;4231688;28;19930;-70
2024/02/10 07:58:11;;;;;;;;;;;;;;;22.00;37.68;98021.94;4231836;28;20347;-70
2024/02/10 08:00:16;;;;;;;;;;;;;;;22.00;37.46;98031.81;4230814;28;19931;-69
2024/02/10 08:02:21;;;;;;;;;;;;;;;22.00;37.59;98029.16;4231878;28;20339;-69
2024/02/10 08:04:23;;;;;;;;;;;;;;;21.99;37.50;98020.31;4231821;28;19924;-70
2024/02/10 08:06:27;;;;;;;;;;;;;;;21.99;37.86;98023.00;4231901;28;20395;-69
2024/02/10 08:08:29;;;;;;;;;;;;;;;21.99;37.81;98027.50;4231884;28;20407;-70
2024/02/10 08:10:31;;;;;;;;;;;;;;;21.99;37.71;98022.13;4231806;28;19923;-69
2024/02/10 08:12:33;;;;;;;;;;;;;;;21.99;37.62;98019.47;4231674;28;19992;-69
2024/02/10 08:14:36;;;;;;;;;;;;;;;22.01;37.82;98018.25;4231405;28;20320;-69
2024/02/10 08:16:38;;;;;;;;;;;;;;;22.02;37.81;98019.09;4231540;28;19923;-70
2024/02/10 08:18:41;;;;;;;;;;;;;;;22.02;37.69;98016.41;4231549;28;20345;-70
2024/02/10 08:20:43;;;;;;;;;;;;;;;22.02;37.42;98014.56;4231733;28;19965;-69
2024/02/10 08:22:47;;;;;;;;;;;;;;;22.01;37.38;98020.91;4231648;28;19924;-69
2024/02/10 08:24:51;;;;;;;;;;;;;;;22.01;37.75;98028.13;4231461;28;19967;-69
2024/02/10 08:26:53;;;;;;;;;;;;;;;22.01;37.65;98025.47;4231397;28;19924;-69
2024/02/10 08:28:58;;;;;;;;;;;;;;;21.62;37.82;97973.31;4231235;28;19924;-70
2024/02/10 08:31:04;;;;;;;;;;;;;;;21.99;37.80;98033.69;4231379;28;19923;-69
2024/02/10 08:33:06;;;;;;;;;;;;;;;21.99;37.67;98046.22;4231426;28;19931;-69
2024/02/10 08:35:08;;;;;;;;;;;;;;;21.98;37.84;98045.41;4213169;28;19924;-69
2024/02/10 08:37:12;;;;;;;;;;;;;;;21.97;37.44;98038.41;4230996;28;19931;-70
2024/02/10 08:39:14;;;;;;;;;;;;;;;21.97;37.39;98033.03;4231380;28;19924;-70
2024/02/10 08:41:17;;;;;;;;;;;;;;;21.96;37.54;98033.25;4231096;28;20027;-69
2024/02/10 08:43:19;;;;;;;;;;;;;;;21.97;37.83;98033.03;4231105;28;20038;-69
2024/02/10 08:45:20;;;;;;;;;;;;;;;21.97;37.45;98035.72;4231309;28;20377;-70
2024/02/10 08:47:22;;;;;;;;;;;;;;;21.97;37.41;98040.22;4231398;28;20024;-70
2024/02/10 08:49:23;;;;;;;;;;;;;;;21.98;37.63;98039.22;4231011;28;20006;-70
2024/02/10 08:51:26;;;;;;;;;;;;;;;21.97;37.62;98043.75;4231298;28;19966;-69
2024/02/10 08:53:30;;;;;;;;;;;;;;;21.96;37.65;98038.59;4231266;28;20019;-69
2024/02/10 08:55:32;;;;;;;;;;;;;;;21.97;37.77;98042.91;4231158;28;19969;-70
2024/02/10 08:57:35;;;;;;;;;;;;;;;21.96;37.67;98042.09;4228185;28;20317;-70
2024/02/10 08:59:41;;;;;;;;;;;;;;;21.96;37.54;98049.31;4230522;28;19934;-71
2024/02/10 09:01:43;;;;;;;;;;;;;;;21.94;38.40;98054.81;4210606;28;19924;-72
2024/02/10 09:03:53;;;;;;;;;;;;;;;21.92;38.33;98046.19;4229465;28;20549;-72
2024/02/10 09:05:54;;;;;;;;;;;;;;;21.90;38.05;98053.56;4213566;28;20347;-72
2024/02/10 09:07:56;;;;;;;;;;;;;;;21.89;38.37;98048.44;4213473;28;19924;-72
2024/02/10 09:09:58;;;;;;;;;;;;;;;21.89;38.11;98051.09;4213627;28;19985;-73
2024/02/10 09:11:59;;;;;;;;;;;;;;;21.88;38.39;98052.13;4232909;28;20038;-73
2024/02/10 09:14:01;;;;;;;;;;;;;;;21.88;38.14;98050.25;4231721;28;19931;-73
2024/02/10 09:16:04;;;;;;;;;;;;;;;21.88;37.99;98055.59;4215603;28;19963;-73
2024/02/10 09:18:06;;;;;;;;;;;;;;;21.90;38.13;98058.09;4233611;28;19924;-74
2024/02/10 09:20:13;;;;;;;;;;;;;;;21.89;38.43;98061.81;4233303;28;20315;-73
2024/02/10 09:22:16;;;;;;;;;;;;;;;21.88;38.21;98054.78;4233502;28;19924;-72
2024/02/10 09:24:18;;;;;;;;;;;;;;;21.86;38.50;98060.34;4215552;28;19931;-73
2024/02/10 09:26:20;;;;;;;;;;;;;;;21.84;38.37;98060.50;4233170;28;20029;-70
2024/02/10 09:28:24;;;;;;;;;;;;;;;21.78;38.25;98061.28;4230985;28;19924;-73
2024/02/10 09:30:25;;;;;;;;;;;;;;;21.80;38.47;98061.09;4233438;28;19969;-72
2024/02/10 09:32:27;;;;;;;;;;;;;;;21.81;38.65;98066.28;4230345;28;20381;-71
2024/02/10 09:34:28;;;;;;;;;;;;;;;21.81;39.05;98066.28;4223325;28;20304;-71
2024/02/10 09:36:32;;;;;;;;;;;;;;;21.75;39.00;98056.34;4222163;28;20391;-71
2024/02/10 09:38:37;;;;;;;;;;;;;;;21.72;39.47;98059.38;4222251;28;20396;-76
2024/02/10 09:40:40;;;;;;;;;;;;;;;21.77;39.06;98059.63;4221619;28;19939;-80
2024/02/10 09:42:46;;;;;;;;;;;;;;;21.81;38.85;98060.91;4224769;28;20030;-76
2024/02/10 09:44:49;;;;;;;;;;;;;;;21.82;39.43;98057.22;4223326;28;20377;-75
2024/02/10 09:46:51;;;;;;;;;;;;;;;21.85;39.25;98054.16;4223259;28;20027;-77
2024/02/10 09:48:54;;;;;;;;;;;;;;;21.88;39.54;98052.13;4222902;28;20050;-78
2024/02/10 09:50:56;;;;;;;;;;;;;;;21.89;39.21;98053.78;4222090;28;19938;-76
2024/02/10 09:52:58;;;;;;;;;;;;;;;21.90;39.43;98050.91;4222460;28;20019;-76
2024/02/10 09:55:00;;;;;;;;;;;;;;;21.91;39.41;98051.72;4222155;28;19924;-80
2024/02/10 09:57:03;;;;;;;;;;;;;;;21.92;39.74;98043.50;4207341;28;19950;-78
2024/02/10 09:59:16;;;;;;;;;;;;;;;21.93;39.28;98041.66;4207705;28;19933;-80
2024/02/10 10:01:18;;;;;;;;;;;;;;;21.92;39.53;98038.16;4205786;28;19970;-77
2024/02/10 10:03:20;;;;;;;;;;;;;;;21.93;39.60;98047.00;4205575;28;19987;-75
2024/02/10 10:05:22;;;;;;;;;;;;;;;21.94;39.45;98043.31;4222007;28;20011;-75
2024/02/10 10:07:24;;;;;;;;;;;;;;;21.94;39.33;98044.13;4222981;28;19932;-75
2024/02/10 10:09:29;;;;;;;;;;;;;;;21.95;39.39;98048.47;4221929;28;19931;-77
2024/02/10 10:11:33;;;;;;;;;;;;;;;21.97;39.34;98046.44;4206199;28;19927;-76
2024/02/10 10:13:37;;;;;;;;;;;;;;;21.99;39.32;98039.03;4221532;28;20434;-77
2024/02/10 10:15:39;;;;;;;;;;;;;;;21.99;39.30;98047.06;4221164;28;19935;-76
2024/02/10 10:17:42;;;;;;;;;;;;;;;22.00;39.57;98048.69;4221798;28;19928;-77
2024/02/10 10:19:44;;;;;;;;;;;;;;;22.02;39.21;98046.66;4223470;28;20020;-76
2024/02/10 10:21:49;;;;;;;;;;;;;;;22.02;39.38;98052.03;4220211;28;20027;-72
2024/02/10 10:23:51;;;;;;;;;;;;;;;22.03;39.30;98050.19;4221501;28;19932;-73
2024/02/10 10:25:52;;;;;;;;;;;;;;;22.00;39.63;98050.56;4205144;28;19924;-75
2024/02/10 10:27:56;;;;;;;;;;;;;;;21.98;39.66;98052.59;4220303;28;19932;-74
2024/02/10 10:29:58;;;;;;;;;;;;;;;21.95;40.39;98059.16;4209785;28;19924;-75
2024/02/10 10:32:02;;;;;;;;;;;;;;;21.92;40.73;98054.22;4220944;28;19928;-74
2024/02/10 10:34:06;;;;;;;;;;;;;;;21.94;40.30;98054.81;4203297;28;20073;-79
2024/02/10 10:36:08;;;;;;;;;;;;;;;21.96;40.29;98054.66;4220660;28;19975;-77
2024/02/10 10:38:09;;;;;;;;;;;;;;;21.95;40.25;98053.00;4220163;28;19987;-76
2024/02/10 10:40:13;;;;;;;;;;;;;;;21.95;40.07;98050.31;4220719;28;19923;-71